Serenade Of The Seas — C6FV8 — position and weather

sailwx.info

Track history (hours):
 
Tides and Currents Weather Stations Pressure Air Temp Water Temp Dewpoint Dewpoint Depression Visibility Wind Speed Wind Dir Waves Ship Positions

Serenade Of The Seas

Operator: Royal Caribbean Cruises Ltd

Last reported at 2018-May-20 19:49 UTC. Time now 2018-May-20 21:18 UTC.
Position N 56°08' E 011°11'.

Length 294 m; draft 8.6 m.

Type: Ship. MMSI: 311492000.

Date/timePositionNaut miles runAvg speedWind from/ knotsBaromVisibWave heightAir tempDewpointWater temp
2018-May-20 19:49N 56°08' E 011°11'816.9
2018-May-20 19:19N 56°13' E 011°24'619.8
2018-May-20 19:00N 56°16' E 011°34'1020.0
2018-May-20 18:29N 56°21' E 011°50'1320.1
2018-May-20 17:50N 56°16' E 012°11'619.7
2018-May-20 17:30N 56°12' E 012°20'1020.5
2018-May-20 17:00N 56°06' E 012°35'918.1
2018-May-20 16:30N 55°58' E 012°42'918.7
2018-May-20 16:00N 55°49' E 012°44'713.3
2018-May-20 15:30N 55°43' E 012°38'0 0.3
2018-May-20 14:59N 55°43' E 012°38'0 0.0
2018-May-20 14:29N 55°43' E 012°38'0 0.0
2018-May-20 13:59N 55°43' E 012°38'0 0.0
2018-May-20 13:29N 55°43' E 012°38'0 0.0
2018-May-20 12:59N 55°43' E 012°38'0 0.0
2018-May-20 12:29N 55°43' E 012°38'0 0.0
2018-May-20 11:59N 55°43' E 012°38'0 0.0
2018-May-20 11:29N 55°43' E 012°38'0 0.0
2018-May-20 10:59N 55°43' E 012°38'0 0.0
2018-May-20 10:29N 55°43' E 012°38'0 0.0
2018-May-20 09:59N 55°43' E 012°38'0 0.0
2018-May-20 09:29N 55°43' E 012°38'0 0.0
2018-May-20 08:59N 55°43' E 012°38'0 0.0
2018-May-20 08:29N 55°43' E 012°38'0 0.0
2018-May-20 07:59N 55°43' E 012°38'0 0.0
2018-May-20 07:29N 55°43' E 012°38'0 0.0
2018-May-20 06:59N 55°43' E 012°38'0 0.0
2018-May-20 06:29N 55°43' E 012°38'0 0.0
2018-May-20 05:59N 55°43' E 012°38'0 0.0
2018-May-20 05:29N 55°43' E 012°38'0 0.0
2018-May-20 04:59N 55°43' E 012°38'0 0.0
2018-May-20 04:29N 55°43' E 012°38'0 0.3
2018-May-20 04:00N 55°43' E 012°38'3 5.2
2018-May-20 03:30N 55°45' E 012°41'713.2
2018-May-20 03:00N 55°51' E 012°41'816.2
2018-May-20 02:30N 55°60' E 012°40'815.5
2018-May-20 02:00N 56°06' E 012°33'816.5
2018-May-20 01:30N 56°11' E 012°21'815.3
2018-May-20 01:00N 56°13' E 012°08'816.6
2018-May-20 00:30N 56°10' E 011°54'816.3
2018-May-20 00:00N 56°08' E 011°40'1016.6
2018-May-19 23:24N 56°10' E 011°23'715.2
2018-May-19 22:55N 56°07' E 011°11'4115.6
2018-May-19 20:16N 55°26' E 010°58'518.0
2018-May-19 20:00N 55°22' E 011°02'1017.7
2018-May-19 19:28N 55°13' E 011°06'817.6
2018-May-19 19:00N 55°05' E 011°03'816.7
2018-May-19 18:30N 54°57' E 010°58'816.5
2018-May-19 18:00N 54°49' E 010°52'816.1
2018-May-19 17:30N 54°41' E 010°55'917.7
2018-May-19 17:00N 54°37' E 011°08'918.3
2018-May-19 16:30N 54°33' E 011°23'917.8
2018-May-19 16:00N 54°29' E 011°36'917.7
2018-May-19 15:30N 54°26' E 011°51'1316.0
2018-May-19 14:41N 54°30' E 012°13'818.1
2018-May-19 14:16N 54°37' E 012°17'1017.6
2018-May-19 13:42N 54°43' E 012°30'417.6
2018-May-19 13:30N 54°45' E 012°35'917.5
2018-May-19 13:00N 54°50' E 012°48'917.7
2018-May-19 12:30N 54°53' E 013°02'918.0
2018-May-19 12:00N 54°55' E 013°17'917.8
2018-May-19 11:30N 54°59' E 013°32'917.8
2018-May-19 11:00N 55°02' E 013°46'1017.9
2018-May-19 10:25N 55°05' E 014°04'717.7
2018-May-19 10:00N 55°10' E 014°12'917.9
2018-May-19 09:30N 55°17' E 014°22'917.9
2018-May-19 09:00N 55°25' E 014°32'918.3
2018-May-19 08:30N 55°29' E 014°46'1020.7
2018-May-19 08:00N 55°34' E 015°02'1121.3
2018-May-19 07:30N 55°39' E 015°18'1121.3
2018-May-19 07:00N 55°45' E 015°34'1121.2
2018-May-19 06:30N 55°50' E 015°50'1121.2
2018-May-19 06:00N 55°55' E 016°07'1121.2
2018-May-19 05:30N 56°01' E 016°23'1121.2
2018-May-19 05:01N 56°07' E 016°39'1121.1
2018-May-19 04:30N 56°13' E 016°54'1121.1
2018-May-19 04:00N 56°19' E 017°10'21221.3
2018-May-18 18:04N 59°00' E 021°27'321.6
2018-May-18 17:57N 59°02' E 021°29'1321.5
2018-May-18 17:21N 59°12' E 021°47'721.9
2018-May-18 17:00N 59°17' E 021°58'1121.7
2018-May-18 16:31N 59°23' E 022°15'1121.6
2018-May-18 16:00N 59°29' E 022°32'1521.0
2018-May-18 15:16N 59°34' E 023°02'621.4
2018-May-18 15:01N 59°36' E 023°12'1121.3
2018-May-18 14:31N 59°39' E 023°32'1121.5
2018-May-18 14:01N 59°42' E 023°52'1120.9
2018-May-18 13:30N 59°45' E 024°13'1021.2
2018-May-18 13:00N 59°48' E 024°32'1021.0
2018-May-18 12:31N 59°53' E 024°51'815.6
2018-May-18 12:00N 60°00' E 024°56'713.9
2018-May-18 11:30N 60°07' E 024°54'2 3.4
2018-May-18 10:58N 60°09' E 024°55'0 0.0
2018-May-18 10:25N 60°09' E 024°55'0 0.0
2018-May-18 09:58N 60°09' E 024°55'0 0.0
2018-May-18 09:28N 60°09' E 024°55'0 0.0
2018-May-18 08:58N 60°09' E 024°55'0 0.0
2018-May-18 08:28N 60°09' E 024°55'0 0.0
2018-May-18 07:58N 60°09' E 024°55'0 0.0
2018-May-18 07:28N 60°09' E 024°55'0 0.0
2018-May-18 06:58N 60°09' E 024°55'0 0.0
2018-May-18 06:28N 60°09' E 024°55'0 0.0
2018-May-18 05:58N 60°09' E 024°55'0 0.0
2018-May-18 05:28N 60°09' E 024°55'0 0.0
2018-May-18 04:58N 60°09' E 024°55'0 0.0
2018-May-18 04:28N 60°09' E 024°55'0 0.0
2018-May-18 04:00N 60°09' E 024°55'1 2.2
2018-May-18 03:30N 60°08' E 024°54'3 6.5
2018-May-18 03:00N 60°05' E 024°53'612.9
2018-May-18 02:30N 59°59' E 024°59'918.4
2018-May-18 02:00N 59°56' E 025°16'1019.2
2018-May-18 01:30N 59°53' E 025°35'2022.0
2018-May-18 00:36N 59°58' E 026°13'322.6
2018-May-18 00:28N 59°59' E 026°18'613.6
2018-May-18 00:00N 60°01' E 026°31'1019.4
2018-May-17 23:29N 60°00' E 026°51'918.5
2018-May-17 23:00N 60°01' E 027°09'1019.4
2018-May-17 22:30N 60°06' E 027°25'1019.4
2018-May-17 22:00N 60°11' E 027°42'1019.2
2018-May-17 21:30N 60°10' E 028°01'1019.4
2018-May-17 21:00N 60°07' E 028°19'918.9
2018-May-17 20:30N 60°03' E 028°36'1019.9
2018-May-17 20:00N 60°02' E 028°56'919.1
2018-May-17 19:30N 60°02' E 029°15'612.5
2018-May-17 19:00N 60°01' E 029°28'811.0
2018-May-17 18:15N 59°59' E 029°44'2 7.9
2018-May-17 18:00N 59°58' E 029°47'5 9.9
2018-May-17 17:30N 59°56' E 029°56'5 9.4
2018-May-17 17:00N 59°56' E 030°05'3 5.7
2018-May-17 16:30N 59°57' E 030°11'0 0.1
2018-May-17 16:00N 59°57' E 030°11'0 0.0
2018-May-17 15:30N 59°57' E 030°11'0 0.0
2018-May-17 14:57N 59°57' E 030°11'0 0.0
2018-May-17 14:30N 59°57' E 030°11'0 0.0
2018-May-17 14:01N 59°57' E 030°11'0 0.0
2018-May-17 13:31N 59°57' E 030°11'0 0.0
2018-May-17 12:59N 59°57' E 030°11'0 0.0
2018-May-17 12:19N 59°57' E 030°11'0 0.0
2018-May-17 12:00N 59°57' E 030°11'0 0.0
2018-May-17 11:31N 59°57' E 030°11'0 0.0
2018-May-17 11:00N 59°57' E 030°11'0 0.0
2018-May-17 10:30N 59°57' E 030°11'0 0.0
2018-May-17 10:01N 59°57' E 030°11'0 0.0
2018-May-17 09:27N 59°57' E 030°11'0 0.0
2018-May-17 08:57N 59°57' E 030°11'0 0.0
2018-May-17 08:25N 59°57' E 030°11'0 0.0
2018-May-17 08:00N 59°57' E 030°11'0 0.0
2018-May-17 07:30N 59°57' E 030°11'0 0.0
2018-May-17 07:01N 59°57' E 030°11'0 0.0
2018-May-17 06:22N 59°57' E 030°11'0 0.0
2018-May-17 06:00N 59°57' E 030°11'0 0.0
2018-May-17 05:31N 59°57' E 030°11'0 0.0
2018-May-17 05:00N 59°57' E 030°11'0 0.0
2018-May-17 04:30N 59°57' E 030°11'0 0.0
2018-May-17 04:01N 59°57' E 030°11'0 0.1
2018-May-17 03:29N 59°57' E 030°11'3 5.6
2018-May-17 03:01N 59°57' E 030°06'5 9.3
2018-May-17 02:30N 59°56' E 029°57'510.5
2018-May-17 02:00N 59°58' E 029°47'5 9.4
2018-May-17 01:29N 60°00' E 029°38'814.7
2018-May-17 00:54N 60°02' E 029°22'410.4
2018-May-17 00:31N 60°02' E 029°13'816.0
2018-May-17 00:01N 60°02' E 028°57'815.9
2018-May-16 23:31N 60°02' E 028°42'816.0
2018-May-16 23:01N 60°03' E 028°26'816.0
2018-May-16 22:31N 60°08' E 028°12'816.3
2018-May-16 22:01N 60°10' E 027°57'815.2
2018-May-16 21:31N 60°09' E 027°41'816.8
2018-May-16 21:01N 60°05' E 027°27'917.3
2018-May-16 20:29N 60°00' E 027°12'915.6
2018-May-16 19:56N 59°58' E 026°55'716.8
2018-May-16 19:31N 59°60' E 026°41'916.9
2018-May-16 18:59N 59°57' E 026°23'816.9
2018-May-16 18:31N 59°55' E 026°08'917.0
2018-May-16 18:01N 59°53' E 025°52'816.9
2018-May-16 17:31N 59°51' E 025°35'816.7
2018-May-16 17:01N 59°50' E 025°19'816.4
2018-May-16 16:30N 59°48' E 025°03'815.8
2018-May-16 16:01N 59°44' E 024°50'816.6
2018-May-16 15:30N 59°37' E 024°41'713.4
2018-May-16 15:00N 59°30' E 024°45'3 6.5
2018-May-16 14:30N 59°27' E 024°46'0 0.0
2018-May-16 14:00N 59°27' E 024°46'0 0.0
2018-May-16 13:30N 59°27' E 024°46'0 0.0
2018-May-16 13:00N 59°27' E 024°46'0 0.0
2018-May-16 12:27N 59°27' E 024°46'0 0.0
2018-May-16 12:00N 59°27' E 024°46'0 0.0
2018-May-16 11:30N 59°27' E 024°46'0 0.0
2018-May-16 11:00N 59°27' E 024°46'0 0.0
2018-May-16 10:30N 59°27' E 024°46'0 0.0
2018-May-16 09:57N 59°27' E 024°46'0 0.0
2018-May-16 09:30N 59°27' E 024°46'0 0.0
2018-May-16 09:00N 59°27' E 024°46'0 0.0
2018-May-16 08:27N 59°27' E 024°46'0 0.0
2018-May-16 08:00N 59°27' E 024°46'0 0.0
2018-May-16 07:30N 59°27' E 024°46'0 0.0
2018-May-16 07:00N 59°27' E 024°46'0 0.0
2018-May-16 06:27N 59°27' E 024°46'1 1.9
2018-May-16 06:01N 59°28' E 024°46'5 9.2
2018-May-16 05:31N 59°30' E 024°38'714.0
2018-May-16 05:01N 59°30' E 024°24'917.5
2018-May-16 04:30N 59°30' E 024°07'917.9
2018-May-16 04:00N 59°30' E 023°49'918.7
2018-May-16 03:30N 59°30' E 023°31'918.8
2018-May-16 03:00N 59°30' E 023°12'918.8
2018-May-16 02:31N 59°28' E 022°55'2117.5
2018-May-16 01:18N 59°23' E 022°14'618.7
2018-May-16 00:57N 59°24' E 022°02'818.5
2018-May-16 00:30N 59°24' E 021°45'918.6
2018-May-16 00:01N 59°24' E 021°27'918.6
2018-May-15 23:30N 59°25' E 021°09'2818.5
2018-May-15 21:58N 59°27' E 020°13'817.5
2018-May-15 21:31N 59°33' E 020°04'1019.1
2018-May-15 21:00N 59°40' E 019°51'1018.9
2018-May-15 20:29N 59°47' E 019°37'816.8
2018-May-15 20:00N 59°46' E 019°21'713.8
2018-May-15 19:30N 59°44' E 019°09'714.8
2018-May-15 19:00N 59°40' E 018°56'510.2
2018-May-15 18:30N 59°37' E 018°48'611.8
2018-May-15 18:00N 59°34' E 018°38'5 9.9
2018-May-15 17:30N 59°31' E 018°30'510.8
2018-May-15 17:00N 59°26' E 018°24'5 9.3
2018-May-15 16:30N 59°22' E 018°27'4 7.9
2018-May-15 16:00N 59°22' E 018°19'611.6
2018-May-15 15:30N 59°19' E 018°09'2 3.1
2018-May-15 14:59N 59°19' E 018°06'0 0.0
2018-May-15 14:29N 59°19' E 018°06'0 0.0
2018-May-15 13:59N 59°19' E 018°06'0 0.0
2018-May-15 13:29N 59°19' E 018°06'0 0.0
2018-May-15 12:59N 59°19' E 018°06'0 0.0
2018-May-15 12:29N 59°19' E 018°06'0 0.0
2018-May-15 11:59N 59°19' E 018°06'0 0.0
2018-May-15 11:29N 59°19' E 018°06'0 0.0
2018-May-15 10:59N 59°19' E 018°06'0 0.0
2018-May-15 10:29N 59°19' E 018°06'0 0.0
2018-May-15 09:59N 59°19' E 018°06'0 0.0
2018-May-15 09:29N 59°19' E 018°06'0 0.0
2018-May-15 08:59N 59°19' E 018°06'0 0.0
2018-May-15 08:29N 59°19' E 018°06'0 0.0
2018-May-15 07:59N 59°19' E 018°06'0 0.0
2018-May-15 07:29N 59°19' E 018°06'0 0.0
2018-May-15 06:55N 59°19' E 018°06'2 3.9
2018-May-15 06:30N 59°19' E 018°09'611.5
2018-May-15 06:00N 59°23' E 018°18'5 9.0
2018-May-15 05:30N 59°22' E 018°27'4 9.1
2018-May-15 05:01N 59°27' E 018°25'610.5
2018-May-15 04:29N 59°31' E 018°31'5 9.9
2018-May-15 04:00N 59°34' E 018°39'611.8
2018-May-15 03:30N 59°37' E 018°48'610.6
2018-May-15 02:57N 59°40' E 018°57'816.8
2018-May-15 02:30N 59°44' E 019°11'815.5
2018-May-15 01:59N 59°47' E 019°26'816.2
2018-May-15 01:30N 59°48' E 019°41'917.6
2018-May-15 01:00N 59°43' E 019°54'917.4
2018-May-15 00:30N 59°36' E 020°07'2016.0
2018-May-14 23:16N 59°17' E 019°58'617.7
2018-May-14 22:55N 59°12' E 019°50'717.9
2018-May-14 22:30N 59°07' E 019°41'3920.2
2018-May-14 20:35N 58°37' E 018°53'2021.3
2018-May-14 19:37N 58°20' E 018°31'321.3
2018-May-14 19:28N 58°17' E 018°28'1021.2
2018-May-14 19:00N 58°09' E 018°17'7521.4
2018-May-14 15:29N 56°58' E 017°31'1121.6
2018-May-14 14:58N 56°47' E 017°25'1021.5
2018-May-14 14:30N 56°38' E 017°20'1020.9
2018-May-14 14:00N 56°28' E 017°15'1020.9
2018-May-14 13:30N 56°18' E 017°10'1020.1
2018-May-14 13:00N 56°09' E 017°00'1020.5
2018-May-14 12:30N 56°02' E 016°46'1020.5
2018-May-14 12:00N 55°56' E 016°32'1020.6
2018-May-14 11:30N 55°51' E 016°16'1020.5
2018-May-14 11:00N 55°46' E 015°60'1020.5
2018-May-14 10:30N 55°41' E 015°44'1020.6
2018-May-14 10:00N 55°37' E 015°27'1020.3
2018-May-14 09:30N 55°33' E 015°11'1120.3
2018-May-14 08:59N 55°28' E 014°54'1020.4
2018-May-14 08:30N 55°23' E 014°39'1020.5
2018-May-14 08:00N 55°15' E 014°28'1020.3
2018-May-14 07:30N 55°08' E 014°16'1020.1
2018-May-14 07:00N 55°01' E 014°04'1220.3
2018-May-14 06:25N 54°57' E 013°44'920.7
2018-May-14 06:00N 54°54' E 013°30'1020.4
2018-May-14 05:30N 54°51' E 013°13'1019.9
2018-May-14 05:00N 54°48' E 012°56'1019.2
2018-May-14 04:30N 54°45' E 012°41'1019.1
2018-May-14 04:00N 54°40' E 012°27'918.4
2018-May-14 03:30N 54°33' E 012°15'918.7
2018-May-14 03:00N 54°25' E 012°09'918.9
2018-May-14 02:30N 54°25' E 011°52'919.0
2018-May-14 02:00N 54°28' E 011°37'1019.5
2018-May-14 01:30N 54°32' E 011°22'1019.3
2018-May-14 01:00N 54°36' E 011°07'918.9
2018-May-14 00:30N 54°41' E 010°53'918.3
2018-May-14 00:00N 54°51' E 010°52'917.7
2018-May-13 23:30N 54°58' E 010°59'918.7
2018-May-13 23:00N 55°08' E 011°02'918.0
2018-May-13 22:30N 55°17' E 011°03'7113.2
2018-May-13 17:07N 56°10' E 012°28'220.7
2018-May-13 17:00N 56°08' E 012°31'919.1
2018-May-13 16:30N 56°00' E 012°41'918.7
2018-May-13 16:00N 55°51' E 012°45'816.6
2018-May-13 15:31N 55°44' E 012°39'2 3.0
2018-May-13 14:58N 55°43' E 012°37'0 0.0
2018-May-13 14:28N 55°43' E 012°37'0 0.0
2018-May-13 13:58N 55°43' E 012°37'0 0.0
2018-May-13 13:28N 55°43' E 012°37'0 0.0
2018-May-13 12:58N 55°43' E 012°37'0 0.0
2018-May-13 12:28N 55°43' E 012°37'0 0.0
2018-May-13 11:58N 55°43' E 012°37'0 0.0
2018-May-13 11:28N 55°43' E 012°37'0 0.0
2018-May-13 10:58N 55°43' E 012°37'0 0.0
2018-May-13 10:28N 55°43' E 012°37'0 0.0
2018-May-13 09:58N 55°43' E 012°37'0 0.0
2018-May-13 09:28N 55°43' E 012°37'0 0.0
2018-May-13 08:58N 55°43' E 012°37'0 0.0
2018-May-13 08:28N 55°43' E 012°37'0 0.0
2018-May-13 07:55N 55°43' E 012°37'0 0.0
2018-May-13 07:28N 55°43' E 012°37'0 0.0
2018-May-13 06:58N 55°43' E 012°37'0 0.0
2018-May-13 06:28N 55°43' E 012°37'0 0.0
2018-May-13 05:58N 55°43' E 012°37'0 0.0
2018-May-13 05:28N 55°43' E 012°37'0 0.0
2018-May-13 04:58N 55°43' E 012°37'0 0.1
2018-May-13 04:30N 55°43' E 012°37'4 8.4
2018-May-13 04:00N 55°46' E 012°42'714.5
2018-May-13 03:30N 55°53' E 012°39'714.3
2018-May-13 03:00N 56°00' E 012°40'715.0
2018-May-13 02:30N 56°06' E 012°32'6716.0
2018-May-12 22:17N 57°07' E 011°38'616.3
2018-May-12 21:56N 57°12' E 011°34'716.9
2018-May-12 21:30N 57°19' E 011°30'917.5
2018-May-12 21:00N 57°27' E 011°23'917.0
2018-May-12 20:30N 57°33' E 011°12'817.0
2018-May-12 20:00N 57°39' E 011°01'917.2
2018-May-12 19:30N 57°45' E 010°49'917.1
2018-May-12 19:00N 57°50' E 010°37'917.8
2018-May-12 18:30N 57°50' E 010°20'1020.7
2018-May-12 18:00N 57°50' E 010°00'2120.5
2018-May-12 17:00N 57°47' E 009°22'1120.9
2018-May-12 16:30N 57°46' E 009°02'1020.9
2018-May-12 16:00N 57°45' E 008°43'1020.5
2018-May-12 15:30N 57°44' E 008°24'1020.3
2018-May-12 15:00N 57°42' E 008°05'1020.6
2018-May-12 14:30N 57°41' E 007°46'1020.6
2018-May-12 14:00N 57°42' E 007°27'1020.6
2018-May-12 13:30N 57°42' E 007°07'1020.5
2018-May-12 13:00N 57°43' E 006°48'1120.4
2018-May-12 12:29N 57°44' E 006°29'1020.6
2018-May-12 12:00N 57°51' E 006°14'1019.8
2018-May-12 11:30N 57°58' E 006°01'1019.3
2018-May-12 11:00N 58°04' E 005°48'1020.1
2018-May-12 10:30N 58°11' E 005°34'1020.4
2018-May-12 10:00N 58°18' E 005°19'1120.8
2018-May-12 09:28N 58°26' E 005°05'1020.9
2018-May-12 09:00N 58°33' E 004°51'1520.5
2018-May-12 08:15N 58°44' E 004°31'520.3
2018-May-12 08:00N 58°47' E 004°24'1020.1
2018-May-12 07:30N 58°54' E 004°11'1019.1
2018-May-12 06:58N 59°04' E 004°02'1020.5
2018-May-12 06:30N 59°13' E 004°02'1120.7
2018-May-12 05:59N 59°24' E 004°02'1220.6
2018-May-12 05:24N 59°36' E 004°02'16119.5
2018-May-11 21:08N 62°16' E 004°37'218.6
2018-May-11 21:00N 62°17' E 004°41'1019.1
2018-May-11 20:30N 62°22' E 004°59'1019.8
2018-May-11 19:59N 62°27' E 005°18'1019.6
2018-May-11 19:30N 62°30' E 005°38'918.7
2018-May-11 19:00N 62°27' E 005°56'612.8
2018-May-11 18:30N 62°23' E 006°08'919.2
2018-May-11 18:00N 62°25' E 006°28'1018.9
2018-May-11 17:30N 62°27' E 006°48'917.1
2018-May-11 17:00N 62°20' E 006°57'917.3
2018-May-11 16:30N 62°11' E 007°02'611.2
2018-May-11 16:00N 62°06' E 007°01'4 8.2
2018-May-11 15:30N 62°07' E 007°09'2 3.3
2018-May-11 15:00N 62°06' E 007°12'0 0.0
2018-May-11 14:30N 62°06' E 007°12'0 0.0
2018-May-11 14:00N 62°06' E 007°12'0 0.0
2018-May-11 13:30N 62°06' E 007°12'0 0.0
2018-May-11 13:00N 62°06' E 007°12'0 0.0
2018-May-11 12:30N 62°06' E 007°12'0 0.0
2018-May-11 12:00N 62°06' E 007°12'0 0.0
2018-May-11 11:30N 62°06' E 007°12'0 0.0
2018-May-11 11:00N 62°06' E 007°12'0 0.0
2018-May-11 10:30N 62°06' E 007°12'0 0.0
2018-May-11 09:58N 62°06' E 007°12'0 0.0
2018-May-11 09:28N 62°06' E 007°12'0 0.0
2018-May-11 08:58N 62°06' E 007°12'0 0.0
2018-May-11 08:28N 62°06' E 007°12'0 0.0
2018-May-11 07:58N 62°06' E 007°12'0 0.0
2018-May-11 07:28N 62°06' E 007°12'0 0.0
2018-May-11 06:58N 62°06' E 007°12'0 0.0
2018-May-11 06:28N 62°06' E 007°12'0 0.0
2018-May-11 05:58N 62°06' E 007°12'0 0.0
2018-May-11 05:28N 62°06' E 007°12'0 0.0
2018-May-11 04:58N 62°06' E 007°12'0 0.0
2018-May-11 04:28N 62°06' E 007°12'0 0.2
2018-May-11 04:00N 62°06' E 007°12'2 3.1
2018-May-11 03:30N 62°07' E 007°09'3 5.5
2018-May-11 03:00N 62°06' E 007°04'3 5.9
2018-May-11 02:30N 62°06' E 006°58'3 5.4
2018-May-11 02:00N 62°09' E 006°59'3 6.1
2018-May-11 01:30N 62°12' E 007°02'3 6.5
2018-May-11 01:00N 62°15' E 007°01'3 6.1
2018-May-11 00:30N 62°18' E 006°60'3 6.2
2018-May-10 23:58N 62°21' E 006°56'3 6.4
2018-May-10 23:30N 62°24' E 006°56'3 5.8
2018-May-10 23:00N 62°26' E 006°52'3 6.5
2018-May-10 22:29N 62°27' E 006°45'3 6.1
2018-May-10 22:00N 62°27' E 006°39'3 6.3
2018-May-10 21:29N 62°26' E 006°33'3 6.3
2018-May-10 20:59N 62°25' E 006°26'3 6.3
2018-May-10 20:30N 62°24' E 006°20'3 6.4
2018-May-10 20:00N 62°23' E 006°13'  
Track history (hours):
 
Tides and Currents Weather Stations Pressure Air Temp Water Temp Dewpoint Dewpoint Depression Visibility Wind Speed Wind Dir Waves Ship Positions

Serenade Of The Seas

Operator: Royal Caribbean Cruises Ltd

Last reported at 2018-May-20 19:49 UTC. Time now 2018-May-20 21:18 UTC.
Position N 56°08' E 011°11'.

Length 294 m; draft 8.6 m.

Type: Ship. MMSI: 311492000.

Date/timePositionNaut miles runAvg speedWind from/ knotsBaromVisibWave heightAir tempDewpointWater temp
2018-May-20 19:49N 56°08' E 011°11'816.9
2018-May-20 19:19N 56°13' E 011°24'619.8
2018-May-20 19:00N 56°16' E 011°34'1020.0
2018-May-20 18:29N 56°21' E 011°50'1320.1
2018-May-20 17:50N 56°16' E 012°11'619.7
2018-May-20 17:30N 56°12' E 012°20'1020.5
2018-May-20 17:00N 56°06' E 012°35'918.1
2018-May-20 16:30N 55°58' E 012°42'918.7
2018-May-20 16:00N 55°49' E 012°44'713.3
2018-May-20 15:30N 55°43' E 012°38'0 0.3
2018-May-20 14:59N 55°43' E 012°38'0 0.0
2018-May-20 14:29N 55°43' E 012°38'0 0.0
2018-May-20 13:59N 55°43' E 012°38'0 0.0
2018-May-20 13:29N 55°43' E 012°38'0 0.0
2018-May-20 12:59N 55°43' E 012°38'0 0.0
2018-May-20 12:29N 55°43' E 012°38'0 0.0
2018-May-20 11:59N 55°43' E 012°38'0 0.0
2018-May-20 11:29N 55°43' E 012°38'0 0.0
2018-May-20 10:59N 55°43' E 012°38'0 0.0
2018-May-20 10:29N 55°43' E 012°38'0 0.0
2018-May-20 09:59N 55°43' E 012°38'0 0.0
2018-May-20 09:29N 55°43' E 012°38'0 0.0
2018-May-20 08:59N 55°43' E 012°38'0 0.0
2018-May-20 08:29N 55°43' E 012°38'0 0.0
2018-May-20 07:59N 55°43' E 012°38'0 0.0
2018-May-20 07:29N 55°43' E 012°38'0 0.0
2018-May-20 06:59N 55°43' E 012°38'0 0.0
2018-May-20 06:29N 55°43' E 012°38'0 0.0
2018-May-20 05:59N 55°43' E 012°38'0 0.0
2018-May-20 05:29N 55°43' E 012°38'0 0.0
2018-May-20 04:59N 55°43' E 012°38'0 0.0
2018-May-20 04:29N 55°43' E 012°38'0 0.3
2018-May-20 04:00N 55°43' E 012°38'3 5.2
2018-May-20 03:30N 55°45' E 012°41'713.2
2018-May-20 03:00N 55°51' E 012°41'816.2
2018-May-20 02:30N 55°60' E 012°40'815.5
2018-May-20 02:00N 56°06' E 012°33'816.5
2018-May-20 01:30N 56°11' E 012°21'815.3
2018-May-20 01:00N 56°13' E 012°08'816.6
2018-May-20 00:30N 56°10' E 011°54'816.3
2018-May-20 00:00N 56°08' E 011°40'1016.6
2018-May-19 23:24N 56°10' E 011°23'715.2
2018-May-19 22:55N 56°07' E 011°11'4115.6
2018-May-19 20:16N 55°26' E 010°58'518.0
2018-May-19 20:00N 55°22' E 011°02'1017.7
2018-May-19 19:28N 55°13' E 011°06'817.6
2018-May-19 19:00N 55°05' E 011°03'816.7
2018-May-19 18:30N 54°57' E 010°58'816.5
2018-May-19 18:00N 54°49' E 010°52'816.1
2018-May-19 17:30N 54°41' E 010°55'917.7
2018-May-19 17:00N 54°37' E 011°08'918.3
2018-May-19 16:30N 54°33' E 011°23'917.8
2018-May-19 16:00N 54°29' E 011°36'917.7
2018-May-19 15:30N 54°26' E 011°51'1316.0
2018-May-19 14:41N 54°30' E 012°13'818.1
2018-May-19 14:16N 54°37' E 012°17'1017.6
2018-May-19 13:42N 54°43' E 012°30'417.6
2018-May-19 13:30N 54°45' E 012°35'917.5
2018-May-19 13:00N 54°50' E 012°48'917.7
2018-May-19 12:30N 54°53' E 013°02'918.0
2018-May-19 12:00N 54°55' E 013°17'917.8
2018-May-19 11:30N 54°59' E 013°32'917.8
2018-May-19 11:00N 55°02' E 013°46'1017.9
2018-May-19 10:25N 55°05' E 014°04'717.7
2018-May-19 10:00N 55°10' E 014°12'917.9
2018-May-19 09:30N 55°17' E 014°22'917.9
2018-May-19 09:00N 55°25' E 014°32'918.3
2018-May-19 08:30N 55°29' E 014°46'1020.7
2018-May-19 08:00N 55°34' E 015°02'1121.3
2018-May-19 07:30N 55°39' E 015°18'1121.3
2018-May-19 07:00N 55°45' E 015°34'1121.2
2018-May-19 06:30N 55°50' E 015°50'1121.2
2018-May-19 06:00N 55°55' E 016°07'1121.2
2018-May-19 05:30N 56°01' E 016°23'1121.2
2018-May-19 05:01N 56°07' E 016°39'1121.1
2018-May-19 04:30N 56°13' E 016°54'1121.1
2018-May-19 04:00N 56°19' E 017°10'21221.3
2018-May-18 18:04N 59°00' E 021°27'321.6
2018-May-18 17:57N 59°02' E 021°29'1321.5
2018-May-18 17:21N 59°12' E 021°47'721.9
2018-May-18 17:00N 59°17' E 021°58'1121.7
2018-May-18 16:31N 59°23' E 022°15'1121.6
2018-May-18 16:00N 59°29' E 022°32'1521.0
2018-May-18 15:16N 59°34' E 023°02'621.4
2018-May-18 15:01N 59°36' E 023°12'1121.3
2018-May-18 14:31N 59°39' E 023°32'1121.5
2018-May-18 14:01N 59°42' E 023°52'1120.9
2018-May-18 13:30N 59°45' E 024°13'1021.2
2018-May-18 13:00N 59°48' E 024°32'1021.0
2018-May-18 12:31N 59°53' E 024°51'815.6
2018-May-18 12:00N 60°00' E 024°56'713.9
2018-May-18 11:30N 60°07' E 024°54'2 3.4
2018-May-18 10:58N 60°09' E 024°55'0 0.0
2018-May-18 10:25N 60°09' E 024°55'0 0.0
2018-May-18 09:58N 60°09' E 024°55'0 0.0
2018-May-18 09:28N 60°09' E 024°55'0 0.0
2018-May-18 08:58N 60°09' E 024°55'0 0.0
2018-May-18 08:28N 60°09' E 024°55'0 0.0
2018-May-18 07:58N 60°09' E 024°55'0 0.0
2018-May-18 07:28N 60°09' E 024°55'0 0.0
2018-May-18 06:58N 60°09' E 024°55'0 0.0
2018-May-18 06:28N 60°09' E 024°55'0 0.0
2018-May-18 05:58N 60°09' E 024°55'0 0.0
2018-May-18 05:28N 60°09' E 024°55'0 0.0
2018-May-18 04:58N 60°09' E 024°55'0 0.0
2018-May-18 04:28N 60°09' E 024°55'0 0.0
2018-May-18 04:00N 60°09' E 024°55'1 2.2
2018-May-18 03:30N 60°08' E 024°54'3 6.5
2018-May-18 03:00N 60°05' E 024°53'612.9
2018-May-18 02:30N 59°59' E 024°59'918.4
2018-May-18 02:00N 59°56' E 025°16'1019.2
2018-May-18 01:30N 59°53' E 025°35'2022.0
2018-May-18 00:36N 59°58' E 026°13'322.6
2018-May-18 00:28N 59°59' E 026°18'613.6
2018-May-18 00:00N 60°01' E 026°31'1019.4
2018-May-17 23:29N 60°00' E 026°51'918.5
2018-May-17 23:00N 60°01' E 027°09'1019.4
2018-May-17 22:30N 60°06' E 027°25'1019.4
2018-May-17 22:00N 60°11' E 027°42'1019.2
2018-May-17 21:30N 60°10' E 028°01'1019.4
2018-May-17 21:00N 60°07' E 028°19'918.9
2018-May-17 20:30N 60°03' E 028°36'1019.9
2018-May-17 20:00N 60°02' E 028°56'919.1
2018-May-17 19:30N 60°02' E 029°15'612.5
2018-May-17 19:00N 60°01' E 029°28'811.0
2018-May-17 18:15N 59°59' E 029°44'2 7.9
2018-May-17 18:00N 59°58' E 029°47'5 9.9
2018-May-17 17:30N 59°56' E 029°56'5 9.4
2018-May-17 17:00N 59°56' E 030°05'3 5.7
2018-May-17 16:30N 59°57' E 030°11'0 0.1
2018-May-17 16:00N 59°57' E 030°11'0 0.0
2018-May-17 15:30N 59°57' E 030°11'0 0.0
2018-May-17 14:57N 59°57' E 030°11'0 0.0
2018-May-17 14:30N 59°57' E 030°11'0 0.0
2018-May-17 14:01N 59°57' E 030°11'0 0.0
2018-May-17 13:31N 59°57' E 030°11'0 0.0
2018-May-17 12:59N 59°57' E 030°11'0 0.0
2018-May-17 12:19N 59°57' E 030°11'0 0.0
2018-May-17 12:00N 59°57' E 030°11'0 0.0
2018-May-17 11:31N 59°57' E 030°11'0 0.0
2018-May-17 11:00N 59°57' E 030°11'0 0.0
2018-May-17 10:30N 59°57' E 030°11'0 0.0
2018-May-17 10:01N 59°57' E 030°11'0 0.0
2018-May-17 09:27N 59°57' E 030°11'0 0.0
2018-May-17 08:57N 59°57' E 030°11'0 0.0
2018-May-17 08:25N 59°57' E 030°11'0 0.0
2018-May-17 08:00N 59°57' E 030°11'0 0.0
2018-May-17 07:30N 59°57' E 030°11'0 0.0
2018-May-17 07:01N 59°57' E 030°11'0 0.0
2018-May-17 06:22N 59°57' E 030°11'0 0.0
2018-May-17 06:00N 59°57' E 030°11'0 0.0
2018-May-17 05:31N 59°57' E 030°11'0 0.0
2018-May-17 05:00N 59°57' E 030°11'0 0.0
2018-May-17 04:30N 59°57' E 030°11'0 0.0
2018-May-17 04:01N 59°57' E 030°11'0 0.1
2018-May-17 03:29N 59°57' E 030°11'3 5.6
2018-May-17 03:01N 59°57' E 030°06'5 9.3
2018-May-17 02:30N 59°56' E 029°57'510.5
2018-May-17 02:00N 59°58' E 029°47'5 9.4
2018-May-17 01:29N 60°00' E 029°38'814.7
2018-May-17 00:54N 60°02' E 029°22'410.4
2018-May-17 00:31N 60°02' E 029°13'816.0
2018-May-17 00:01N 60°02' E 028°57'815.9
2018-May-16 23:31N 60°02' E 028°42'816.0
2018-May-16 23:01N 60°03' E 028°26'816.0
2018-May-16 22:31N 60°08' E 028°12'816.3
2018-May-16 22:01N 60°10' E 027°57'815.2
2018-May-16 21:31N 60°09' E 027°41'816.8
2018-May-16 21:01N 60°05' E 027°27'917.3
2018-May-16 20:29N 60°00' E 027°12'915.6
2018-May-16 19:56N 59°58' E 026°55'716.8
2018-May-16 19:31N 59°60' E 026°41'916.9
2018-May-16 18:59N 59°57' E 026°23'816.9
2018-May-16 18:31N 59°55' E 026°08'917.0
2018-May-16 18:01N 59°53' E 025°52'816.9
2018-May-16 17:31N 59°51' E 025°35'816.7
2018-May-16 17:01N 59°50' E 025°19'816.4
2018-May-16 16:30N 59°48' E 025°03'815.8
2018-May-16 16:01N 59°44' E 024°50'816.6
2018-May-16 15:30N 59°37' E 024°41'713.4
2018-May-16 15:00N 59°30' E 024°45'3 6.5
2018-May-16 14:30N 59°27' E 024°46'0 0.0
2018-May-16 14:00N 59°27' E 024°46'0 0.0
2018-May-16 13:30N 59°27' E 024°46'0 0.0
2018-May-16 13:00N 59°27' E 024°46'0 0.0
2018-May-16 12:27N 59°27' E 024°46'0 0.0
2018-May-16 12:00N 59°27' E 024°46'0 0.0
2018-May-16 11:30N 59°27' E 024°46'0 0.0
2018-May-16 11:00N 59°27' E 024°46'0 0.0
2018-May-16 10:30N 59°27' E 024°46'0 0.0
2018-May-16 09:57N 59°27' E 024°46'0 0.0
2018-May-16 09:30N 59°27' E 024°46'0 0.0
2018-May-16 09:00N 59°27' E 024°46'0 0.0
2018-May-16 08:27N 59°27' E 024°46'0 0.0
2018-May-16 08:00N 59°27' E 024°46'0 0.0
2018-May-16 07:30N 59°27' E 024°46'0 0.0
2018-May-16 07:00N 59°27' E 024°46'0 0.0
2018-May-16 06:27N 59°27' E 024°46'1 1.9
2018-May-16 06:01N 59°28' E 024°46'5 9.2
2018-May-16 05:31N 59°30' E 024°38'714.0
2018-May-16 05:01N 59°30' E 024°24'917.5
2018-May-16 04:30N 59°30' E 024°07'917.9
2018-May-16 04:00N 59°30' E 023°49'918.7
2018-May-16 03:30N 59°30' E 023°31'918.8
2018-May-16 03:00N 59°30' E 023°12'918.8
2018-May-16 02:31N 59°28' E 022°55'2117.5
2018-May-16 01:18N 59°23' E 022°14'618.7
2018-May-16 00:57N 59°24' E 022°02'818.5
2018-May-16 00:30N 59°24' E 021°45'918.6
2018-May-16 00:01N 59°24' E 021°27'918.6
2018-May-15 23:30N 59°25' E 021°09'2818.5
2018-May-15 21:58N 59°27' E 020°13'817.5
2018-May-15 21:31N 59°33' E 020°04'1019.1
2018-May-15 21:00N 59°40' E 019°51'1018.9
2018-May-15 20:29N 59°47' E 019°37'816.8
2018-May-15 20:00N 59°46' E 019°21'713.8
2018-May-15 19:30N 59°44' E 019°09'714.8
2018-May-15 19:00N 59°40' E 018°56'510.2
2018-May-15 18:30N 59°37' E 018°48'611.8
2018-May-15 18:00N 59°34' E 018°38'5 9.9
2018-May-15 17:30N 59°31' E 018°30'510.8
2018-May-15 17:00N 59°26' E 018°24'5 9.3
2018-May-15 16:30N 59°22' E 018°27'4 7.9
2018-May-15 16:00N 59°22' E 018°19'611.6
2018-May-15 15:30N 59°19' E 018°09'2 3.1
2018-May-15 14:59N 59°19' E 018°06'0 0.0
2018-May-15 14:29N 59°19' E 018°06'0 0.0
2018-May-15 13:59N 59°19' E 018°06'0 0.0
2018-May-15 13:29N 59°19' E 018°06'0 0.0
2018-May-15 12:59N 59°19' E 018°06'0 0.0
2018-May-15 12:29N 59°19' E 018°06'0 0.0
2018-May-15 11:59N 59°19' E 018°06'0 0.0
2018-May-15 11:29N 59°19' E 018°06'0 0.0
2018-May-15 10:59N 59°19' E 018°06'0 0.0
2018-May-15 10:29N 59°19' E 018°06'0 0.0
2018-May-15 09:59N 59°19' E 018°06'0 0.0
2018-May-15 09:29N 59°19' E 018°06'0 0.0
2018-May-15 08:59N 59°19' E 018°06'0 0.0
2018-May-15 08:29N 59°19' E 018°06'0 0.0
2018-May-15 07:59N 59°19' E 018°06'0 0.0
2018-May-15 07:29N 59°19' E 018°06'0 0.0
2018-May-15 06:55N 59°19' E 018°06'2 3.9
2018-May-15 06:30N 59°19' E 018°09'611.5
2018-May-15 06:00N 59°23' E 018°18'5 9.0
2018-May-15 05:30N 59°22' E 018°27'4 9.1
2018-May-15 05:01N 59°27' E 018°25'610.5
2018-May-15 04:29N 59°31' E 018°31'5 9.9
2018-May-15 04:00N 59°34' E 018°39'611.8
2018-May-15 03:30N 59°37' E 018°48'610.6
2018-May-15 02:57N 59°40' E 018°57'816.8
2018-May-15 02:30N 59°44' E 019°11'815.5
2018-May-15 01:59N 59°47' E 019°26'816.2
2018-May-15 01:30N 59°48' E 019°41'917.6
2018-May-15 01:00N 59°43' E 019°54'917.4
2018-May-15 00:30N 59°36' E 020°07'2016.0
2018-May-14 23:16N 59°17' E 019°58'617.7
2018-May-14 22:55N 59°12' E 019°50'717.9
2018-May-14 22:30N 59°07' E 019°41'3920.2
2018-May-14 20:35N 58°37' E 018°53'2021.3
2018-May-14 19:37N 58°20' E 018°31'321.3
2018-May-14 19:28N 58°17' E 018°28'1021.2
2018-May-14 19:00N 58°09' E 018°17'7521.4
2018-May-14 15:29N 56°58' E 017°31'1121.6
2018-May-14 14:58N 56°47' E 017°25'1021.5
2018-May-14 14:30N 56°38' E 017°20'1020.9
2018-May-14 14:00N 56°28' E 017°15'1020.9
2018-May-14 13:30N 56°18' E 017°10'1020.1
2018-May-14 13:00N 56°09' E 017°00'1020.5
2018-May-14 12:30N 56°02' E 016°46'1020.5
2018-May-14 12:00N 55°56' E 016°32'1020.6
2018-May-14 11:30N 55°51' E 016°16'1020.5
2018-May-14 11:00N 55°46' E 015°60'1020.5
2018-May-14 10:30N 55°41' E 015°44'1020.6
2018-May-14 10:00N 55°37' E 015°27'1020.3
2018-May-14 09:30N 55°33' E 015°11'1120.3
2018-May-14 08:59N 55°28' E 014°54'1020.4
2018-May-14 08:30N 55°23' E 014°39'1020.5
2018-May-14 08:00N 55°15' E 014°28'1020.3
2018-May-14 07:30N 55°08' E 014°16'1020.1
2018-May-14 07:00N 55°01' E 014°04'1220.3
2018-May-14 06:25N 54°57' E 013°44'920.7
2018-May-14 06:00N 54°54' E 013°30'1020.4
2018-May-14 05:30N 54°51' E 013°13'1019.9
2018-May-14 05:00N 54°48' E 012°56'1019.2
2018-May-14 04:30N 54°45' E 012°41'1019.1
2018-May-14 04:00N 54°40' E 012°27'918.4
2018-May-14 03:30N 54°33' E 012°15'918.7
2018-May-14 03:00N 54°25' E 012°09'918.9
2018-May-14 02:30N 54°25' E 011°52'919.0
2018-May-14 02:00N 54°28' E 011°37'1019.5
2018-May-14 01:30N 54°32' E 011°22'1019.3
2018-May-14 01:00N 54°36' E 011°07'918.9
2018-May-14 00:30N 54°41' E 010°53'918.3
2018-May-14 00:00N 54°51' E 010°52'917.7
2018-May-13 23:30N 54°58' E 010°59'918.7
2018-May-13 23:00N 55°08' E 011°02'918.0
2018-May-13 22:30N 55°17' E 011°03'7113.2
2018-May-13 17:07N 56°10' E 012°28'220.7
2018-May-13 17:00N 56°08' E 012°31'919.1
2018-May-13 16:30N 56°00' E 012°41'918.7
2018-May-13 16:00N 55°51' E 012°45'816.6
2018-May-13 15:31N 55°44' E 012°39'2 3.0
2018-May-13 14:58N 55°43' E 012°37'0 0.0
2018-May-13 14:28N 55°43' E 012°37'0 0.0
2018-May-13 13:58N 55°43' E 012°37'0 0.0
2018-May-13 13:28N 55°43' E 012°37'0 0.0
2018-May-13 12:58N 55°43' E 012°37'0 0.0
2018-May-13 12:28N 55°43' E 012°37'0 0.0
2018-May-13 11:58N 55°43' E 012°37'0 0.0
2018-May-13 11:28N 55°43' E 012°37'0 0.0
2018-May-13 10:58N 55°43' E 012°37'0 0.0
2018-May-13 10:28N 55°43' E 012°37'0 0.0
2018-May-13 09:58N 55°43' E 012°37'0 0.0
2018-May-13 09:28N 55°43' E 012°37'0 0.0
2018-May-13 08:58N 55°43' E 012°37'0 0.0
2018-May-13 08:28N 55°43' E 012°37'0 0.0
2018-May-13 07:55N 55°43' E 012°37'0 0.0
2018-May-13 07:28N 55°43' E 012°37'0 0.0
2018-May-13 06:58N 55°43' E 012°37'0 0.0
2018-May-13 06:28N 55°43' E 012°37'0 0.0
2018-May-13 05:58N 55°43' E 012°37'0 0.0
2018-May-13 05:28N 55°43' E 012°37'0 0.0
2018-May-13 04:58N 55°43' E 012°37'0 0.1
2018-May-13 04:30N 55°43' E 012°37'4 8.4
2018-May-13 04:00N 55°46' E 012°42'714.5
2018-May-13 03:30N 55°53' E 012°39'714.3
2018-May-13 03:00N 56°00' E 012°40'715.0
2018-May-13 02:30N 56°06' E 012°32'6716.0
2018-May-12 22:17N 57°07' E 011°38'616.3
2018-May-12 21:56N 57°12' E 011°34'716.9
2018-May-12 21:30N 57°19' E 011°30'917.5
2018-May-12 21:00N 57°27' E 011°23'917.0
2018-May-12 20:30N 57°33' E 011°12'817.0
2018-May-12 20:00N 57°39' E 011°01'917.2
2018-May-12 19:30N 57°45' E 010°49'917.1
2018-May-12 19:00N 57°50' E 010°37'917.8
2018-May-12 18:30N 57°50' E 010°20'1020.7
2018-May-12 18:00N 57°50' E 010°00'2120.5
2018-May-12 17:00N 57°47' E 009°22'1120.9
2018-May-12 16:30N 57°46' E 009°02'1020.9
2018-May-12 16:00N 57°45' E 008°43'1020.5
2018-May-12 15:30N 57°44' E 008°24'1020.3
2018-May-12 15:00N 57°42' E 008°05'1020.6
2018-May-12 14:30N 57°41' E 007°46'1020.6
2018-May-12 14:00N 57°42' E 007°27'1020.6
2018-May-12 13:30N 57°42' E 007°07'1020.5
2018-May-12 13:00N 57°43' E 006°48'1120.4
2018-May-12 12:29N 57°44' E 006°29'1020.6
2018-May-12 12:00N 57°51' E 006°14'1019.8
2018-May-12 11:30N 57°58' E 006°01'1019.3
2018-May-12 11:00N 58°04' E 005°48'1020.1
2018-May-12 10:30N 58°11' E 005°34'1020.4
2018-May-12 10:00N 58°18' E 005°19'1120.8
2018-May-12 09:28N 58°26' E 005°05'1020.9
2018-May-12 09:00N 58°33' E 004°51'1520.5
2018-May-12 08:15N 58°44' E 004°31'520.3
2018-May-12 08:00N 58°47' E 004°24'1020.1
2018-May-12 07:30N 58°54' E 004°11'1019.1
2018-May-12 06:58N 59°04' E 004°02'1020.5
2018-May-12 06:30N 59°13' E 004°02'1120.7
2018-May-12 05:59N 59°24' E 004°02'1220.6
2018-May-12 05:24N 59°36' E 004°02'16119.5
2018-May-11 21:08N 62°16' E 004°37'218.6
2018-May-11 21:00N 62°17' E 004°41'1019.1
2018-May-11 20:30N 62°22' E 004°59'1019.8
2018-May-11 19:59N 62°27' E 005°18'1019.6
2018-May-11 19:30N 62°30' E 005°38'918.7
2018-May-11 19:00N 62°27' E 005°56'612.8
2018-May-11 18:30N 62°23' E 006°08'919.2
2018-May-11 18:00N 62°25' E 006°28'1018.9
2018-May-11 17:30N 62°27' E 006°48'917.1
2018-May-11 17:00N 62°20' E 006°57'917.3
2018-May-11 16:30N 62°11' E 007°02'611.2
2018-May-11 16:00N 62°06' E 007°01'4 8.2
2018-May-11 15:30N 62°07' E 007°09'2 3.3
2018-May-11 15:00N 62°06' E 007°12'0 0.0
2018-May-11 14:30N 62°06' E 007°12'0 0.0
2018-May-11 14:00N 62°06' E 007°12'0 0.0
2018-May-11 13:30N 62°06' E 007°12'0 0.0
2018-May-11 13:00N 62°06' E 007°12'0 0.0
2018-May-11 12:30N 62°06' E 007°12'0 0.0
2018-May-11 12:00N 62°06' E 007°12'0 0.0
2018-May-11 11:30N 62°06' E 007°12'0 0.0
2018-May-11 11:00N 62°06' E 007°12'0 0.0
2018-May-11 10:30N 62°06' E 007°12'0 0.0
2018-May-11 09:58N 62°06' E 007°12'0 0.0
2018-May-11 09:28N 62°06' E 007°12'0 0.0
2018-May-11 08:58N 62°06' E 007°12'0 0.0
2018-May-11 08:28N 62°06' E 007°12'0 0.0
2018-May-11 07:58N 62°06' E 007°12'0 0.0
2018-May-11 07:28N 62°06' E 007°12'0 0.0
2018-May-11 06:58N 62°06' E 007°12'0 0.0
2018-May-11 06:28N 62°06' E 007°12'0 0.0
2018-May-11 05:58N 62°06' E 007°12'0 0.0
2018-May-11 05:28N 62°06' E 007°12'0 0.0
2018-May-11 04:58N 62°06' E 007°12'0 0.0
2018-May-11 04:28N 62°06' E 007°12'0 0.2
2018-May-11 04:00N 62°06' E 007°12'2 3.1
2018-May-11 03:30N 62°07' E 007°09'3 5.5
2018-May-11 03:00N 62°06' E 007°04'3 5.9
2018-May-11 02:30N 62°06' E 006°58'3 5.4
2018-May-11 02:00N 62°09' E 006°59'3 6.1
2018-May-11 01:30N 62°12' E 007°02'3 6.5
2018-May-11 01:00N 62°15' E 007°01'3 6.1
2018-May-11 00:30N 62°18' E 006°60'3 6.2
2018-May-10 23:58N 62°21' E 006°56'3 6.4
2018-May-10 23:30N 62°24' E 006°56'3 5.8
2018-May-10 23:00N 62°26' E 006°52'3 6.5
2018-May-10 22:29N 62°27' E 006°45'3 6.1
2018-May-10 22:00N 62°27' E 006°39'3 6.3
2018-May-10 21:29N 62°26' E 006°33'3 6.3
2018-May-10 20:59N 62°25' E 006°26'3 6.3
2018-May-10 20:30N 62°24' E 006°20'3 6.4
2018-May-10 20:00N 62°23' E 006°13'  

Dump ship's entire track history